KVLD/VLD METAR and TAF weather

Enter ICAO airport designator
Station Type Date Time Source
KVLD METAR 2022/01/26 19:53 UTC NOAA

KVLD 261953Z 02012KT 10SM OVC100 18/06 A3012 RMK AO2 SLP207 T01780056


Station Type Date Time Source
KVLD Decoded METAR 2022/01/26 19:53 UTC NOAA

VALDOSTA REGIONAL AIRPORT, GA, United States (KVLD) 30-47N 083-16W
Jan 26, 2022 - 02:53 PM EST / 2022.01.26 1953 UTC
Wind: from the NNE (020 degrees) at 14 MPH (12 KT):0
Visibility: 10 mile(s):0
Sky conditions: overcast
Temperature: 64.0 F (17.8 C)
Dew Point: 42.1 F (5.6 C)
Relative Humidity: 44%
Pressure (altimeter): 30.12 in. Hg (1019 hPa)
ob: KVLD 261953Z 02012KT 10SM OVC100 18/06 A3012 RMK AO2 SLP207 T01780056
cycle: 20

Station Type Date Time Source
KVLD TAF 2022/01/26 18:36 UTC NOAA

TAF KVLD 261735Z 2618/2718 02008KT P6SM -SHRA BKN100
FM270000 04004KT P6SM SCT250
FM270900 03006KT P6SM FEW025

Example: see airport list